sensor_id;sensor_type;location;lat;lon;timestamp;temperature;humidity
60309;DHT22;50313;52.894;6.492;2022-11-20T00:00:56;-1.50;99.90
60309;DHT22;50313;52.894;6.492;2022-11-20T00:03:22;-1.40;99.90
60309;DHT22;50313;52.894;6.492;2022-11-20T00:05:48;-1.40;99.90
60309;DHT22;50313;52.894;6.492;2022-11-20T00:08:14;-1.40;99.90
60309;DHT22;50313;52.894;6.492;2022-11-20T00:10:40;-1.40;99.90
60309;DHT22;50313;52.894;6.492;2022-11-20T00:13:07;-1.40;99.90
60309;DHT22;50313;52.894;6.492;2022-11-20T00:15:33;-1.30;99.90
60309;DHT22;50313;52.894;6.492;2022-11-20T00:17:59;-1.30;99.90
60309;DHT22;50313;52.894;6.492;2022-11-20T00:20:25;-1.30;99.90
60309;DHT22;50313;52.894;6.492;2022-11-20T00:22:51;-1.30;99.90
60309;DHT22;50313;52.894;6.492;2022-11-20T00:25:17;-1.20;99.90
60309;DHT22;50313;52.894;6.492;2022-11-20T00:27:43;-1.20;99.90
60309;DHT22;50313;52.894;6.492;2022-11-20T00:30:09;-1.20;99.90
60309;DHT22;50313;52.894;6.492;2022-11-20T00:32:35;-1.20;99.90
60309;DHT22;50313;52.894;6.492;2022-11-20T00:35:00;-1.20;99.90
60309;DHT22;50313;52.894;6.492;2022-11-20T00:37:26;-1.20;99.90
60309;DHT22;50313;52.894;6.492;2022-11-20T00:39:52;-1.10;99.90
60309;DHT22;50313;52.894;6.492;2022-11-20T00:42:18;-1.10;99.90
60309;DHT22;50313;52.894;6.492;2022-11-20T00:44:44;-1.10;99.90
60309;DHT22;50313;52.894;6.492;2022-11-20T00:47:10;-1.10;99.90
60309;DHT22;50313;52.894;6.492;2022-11-20T00:49:36;-1.00;99.90
60309;DHT22;50313;52.894;6.492;2022-11-20T00:52:02;-1.00;99.90
60309;DHT22;50313;52.894;6.492;2022-11-20T00:54:28;-0.90;99.90
60309;DHT22;50313;52.894;6.492;2022-11-20T00:56:54;-1.00;99.90
60309;DHT22;50313;52.894;6.492;2022-11-20T00:59:19;-1.00;99.90
60309;DHT22;50313;52.894;6.492;2022-11-20T01:01:45;-1.00;99.90
60309;DHT22;50313;52.894;6.492;2022-11-20T01:04:11;-1.00;99.90
60309;DHT22;50313;52.894;6.492;2022-11-20T01:06:38;-1.00;99.90
60309;DHT22;50313;52.894;6.492;2022-11-20T01:09:14;-0.90;99.90
60309;DHT22;50313;52.894;6.492;2022-11-20T01:11:43;-0.90;99.90
60309;DHT22;50313;52.894;6.492;2022-11-20T01:14:12;-0.80;99.90
60309;DHT22;50313;52.894;6.492;2022-11-20T01:16:44;-0.80;99.90
60309;DHT22;50313;52.894;6.492;2022-11-20T01:19:21;-0.80;99.90
60309;DHT22;50313;52.894;6.492;2022-11-20T01:21:53;-0.80;99.90
60309;DHT22;50313;52.894;6.492;2022-11-20T01:24:21;-0.80;99.90
60309;DHT22;50313;52.894;6.492;2022-11-20T01:26:49;-0.80;99.90
60309;DHT22;50313;52.894;6.492;2022-11-20T01:29:21;-0.70;99.90
60309;DHT22;50313;52.894;6.492;2022-11-20T01:31:47;-0.70;99.90
60309;DHT22;50313;52.894;6.492;2022-11-20T01:34:16;-0.70;99.90
60309;DHT22;50313;52.894;6.492;2022-11-20T01:36:43;-0.60;99.90
60309;DHT22;50313;52.894;6.492;2022-11-20T01:39:27;-0.70;99.90
60309;DHT22;50313;52.894;6.492;2022-11-20T01:41:54;-0.70;99.90
60309;DHT22;50313;52.894;6.492;2022-11-20T01:44:47;-0.70;99.90
60309;DHT22;50313;52.894;6.492;2022-11-20T01:47:35;-0.70;99.90
60309;DHT22;50313;52.894;6.492;2022-11-20T01:50:14;-0.70;99.90
60309;DHT22;50313;52.894;6.492;2022-11-20T01:53:02;-0.60;99.90
60309;DHT22;50313;52.894;6.492;2022-11-20T01:55:32;-0.60;99.90
60309;DHT22;50313;52.894;6.492;2022-11-20T01:57:59;-0.60;99.90
60309;DHT22;50313;52.894;6.492;2022-11-20T02:00:26;-0.60;99.90
60309;DHT22;50313;52.894;6.492;2022-11-20T02:02:57;-0.60;99.90
60309;DHT22;50313;52.894;6.492;2022-11-20T02:05:27;-0.60;99.90
60309;DHT22;50313;52.894;6.492;2022-11-20T02:07:56;-0.60;99.90
60309;DHT22;50313;52.894;6.492;2022-11-20T02:10:23;-0.60;99.90
60309;DHT22;50313;52.894;6.492;2022-11-20T02:12:49;-0.50;99.90
60309;DHT22;50313;52.894;6.492;2022-11-20T02:15:33;-0.50;99.90
60309;DHT22;50313;52.894;6.492;2022-11-20T02:18:00;-0.60;99.90
60309;DHT22;50313;52.894;6.492;2022-11-20T02:20:26;-0.60;99.90
60309;DHT22;50313;52.894;6.492;2022-11-20T02:23:16;-0.50;99.90
60309;DHT22;50313;52.894;6.492;2022-11-20T02:25:46;-0.50;99.90
60309;DHT22;50313;52.894;6.492;2022-11-20T02:28:13;-0.50;99.90
60309;DHT22;50313;52.894;6.492;2022-11-20T02:30:39;-0.50;99.90
60309;DHT22;50313;52.894;6.492;2022-11-20T02:33:04;-0.50;99.90
60309;DHT22;50313;52.894;6.492;2022-11-20T02:38:00;-0.50;99.90
60309;DHT22;50313;52.894;6.492;2022-11-20T02:40:26;-0.50;99.90
60309;DHT22;50313;52.894;6.492;2022-11-20T02:42:53;-0.40;99.90
60309;DHT22;50313;52.894;6.492;2022-11-20T02:45:19;-0.40;99.90
60309;DHT22;50313;52.894;6.492;2022-11-20T02:47:45;-0.40;99.90
60309;DHT22;50313;52.894;6.492;2022-11-20T02:50:11;-0.30;99.90
60309;DHT22;50313;52.894;6.492;2022-11-20T02:52:37;-0.40;99.90
60309;DHT22;50313;52.894;6.492;2022-11-20T02:55:03;-0.40;99.90
60309;DHT22;50313;52.894;6.492;2022-11-20T02:57:29;-0.40;99.90
60309;DHT22;50313;52.894;6.492;2022-11-20T02:59:55;-0.30;99.90
60309;DHT22;50313;52.894;6.492;2022-11-20T03:02:21;-0.40;99.90
60309;DHT22;50313;52.894;6.492;2022-11-20T03:04:47;-0.30;99.90
60309;DHT22;50313;52.894;6.492;2022-11-20T03:07:19;-0.30;99.90
60309;DHT22;50313;52.894;6.492;2022-11-20T03:09:44;-0.40;99.90
60309;DHT22;50313;52.894;6.492;2022-11-20T03:12:10;-0.30;99.90
60309;DHT22;50313;52.894;6.492;2022-11-20T03:14:37;-0.30;99.90
60309;DHT22;50313;52.894;6.492;2022-11-20T03:17:03;-0.30;99.90
60309;DHT22;50313;52.894;6.492;2022-11-20T03:19:29;-0.30;99.90
60309;DHT22;50313;52.894;6.492;2022-11-20T03:21:55;-0.30;99.90
60309;DHT22;50313;52.894;6.492;2022-11-20T03:24:21;-0.30;99.90
60309;DHT22;50313;52.894;6.492;2022-11-20T03:26:46;-0.30;99.90
60309;DHT22;50313;52.894;6.492;2022-11-20T03:29:12;-0.30;99.90
60309;DHT22;50313;52.894;6.492;2022-11-20T03:31:40;-0.30;99.90
60309;DHT22;50313;52.894;6.492;2022-11-20T03:34:06;-0.30;99.90
60309;DHT22;50313;52.894;6.492;2022-11-20T03:36:32;-0.30;99.90
60309;DHT22;50313;52.894;6.492;2022-11-20T03:38:59;-0.30;99.90
60309;DHT22;50313;52.894;6.492;2022-11-20T03:41:30;-0.30;99.90
60309;DHT22;50313;52.894;6.492;2022-11-20T03:44:02;-0.20;99.90
60309;DHT22;50313;52.894;6.492;2022-11-20T03:46:28;-0.20;99.90
60309;DHT22;50313;52.894;6.492;2022-11-20T03:48:54;-0.30;99.90
60309;DHT22;50313;52.894;6.492;2022-11-20T03:51:25;-0.20;99.90
60309;DHT22;50313;52.894;6.492;2022-11-20T03:53:54;-0.30;99.90
60309;DHT22;50313;52.894;6.492;2022-11-20T03:56:23;-0.20;99.90
60309;DHT22;50313;52.894;6.492;2022-11-20T03:58:49;-0.20;99.90
60309;DHT22;50313;52.894;6.492;2022-11-20T04:01:19;-0.20;99.90
60309;DHT22;50313;52.894;6.492;2022-11-20T04:03:45;-0.20;99.90
60309;DHT22;50313;52.894;6.492;2022-11-20T04:06:22;-0.20;99.90
60309;DHT22;50313;52.894;6.492;2022-11-20T04:08:49;-0.20;99.90
60309;DHT22;50313;52.894;6.492;2022-11-20T04:11:15;-0.10;99.90
60309;DHT22;50313;52.894;6.492;2022-11-20T04:13:45;-0.20;99.90
60309;DHT22;50313;52.894;6.492;2022-11-20T04:16:11;-0.20;99.90
60309;DHT22;50313;52.894;6.492;2022-11-20T04:18:37;-0.20;99.90
60309;DHT22;50313;52.894;6.492;2022-11-20T04:21:04;-0.20;99.90
60309;DHT22;50313;52.894;6.492;2022-11-20T04:23:30;-0.20;99.90
60309;DHT22;50313;52.894;6.492;2022-11-20T04:26:04;-0.20;99.90
60309;DHT22;50313;52.894;6.492;2022-11-20T04:28:30;-0.10;99.90
60309;DHT22;50313;52.894;6.492;2022-11-20T04:31:08;-0.20;99.90
60309;DHT22;50313;52.894;6.492;2022-11-20T04:33:35;-0.20;99.90
60309;DHT22;50313;52.894;6.492;2022-11-20T04:36:06;-0.10;99.90
60309;DHT22;50313;52.894;6.492;2022-11-20T04:38:33;-0.20;99.90
60309;DHT22;50313;52.894;6.492;2022-11-20T04:41:00;-0.20;99.90
60309;DHT22;50313;52.894;6.492;2022-11-20T04:43:27;-0.20;99.90
60309;DHT22;50313;52.894;6.492;2022-11-20T04:45:57;-0.20;99.90
60309;DHT22;50313;52.894;6.492;2022-11-20T04:48:23;-0.20;99.90
60309;DHT22;50313;52.894;6.492;2022-11-20T04:50:50;-0.20;99.90
60309;DHT22;50313;52.894;6.492;2022-11-20T04:53:17;-0.20;99.90
60309;DHT22;50313;52.894;6.492;2022-11-20T04:55:43;-0.10;99.90
60309;DHT22;50313;52.894;6.492;2022-11-20T04:58:09;-0.10;99.90
60309;DHT22;50313;52.894;6.492;2022-11-20T05:00:35;-0.10;99.90
60309;DHT22;50313;52.894;6.492;2022-11-20T05:03:08;-0.10;99.90
60309;DHT22;50313;52.894;6.492;2022-11-20T05:05:34;-0.20;99.90
60309;DHT22;50313;52.894;6.492;2022-11-20T05:08:00;-0.20;99.90
60309;DHT22;50313;52.894;6.492;2022-11-20T05:10:26;-0.20;99.90
60309;DHT22;50313;52.894;6.492;2022-11-20T05:12:52;-0.10;99.90
60309;DHT22;50313;52.894;6.492;2022-11-20T05:15:19;-0.10;99.90
60309;DHT22;50313;52.894;6.492;2022-11-20T05:17:49;-0.10;99.90
60309;DHT22;50313;52.894;6.492;2022-11-20T05:20:15;-0.10;99.90
60309;DHT22;50313;52.894;6.492;2022-11-20T05:22:41;-0.10;99.90
60309;DHT22;50313;52.894;6.492;2022-11-20T05:25:07;-0.10;99.90
60309;DHT22;50313;52.894;6.492;2022-11-20T05:27:32;-0.20;99.90
60309;DHT22;50313;52.894;6.492;2022-11-20T05:29:58;-0.20;99.90
60309;DHT22;50313;52.894;6.492;2022-11-20T05:32:24;-0.20;99.90
60309;DHT22;50313;52.894;6.492;2022-11-20T05:34:51;-0.20;99.90
60309;DHT22;50313;52.894;6.492;2022-11-20T05:37:17;-0.20;99.90
60309;DHT22;50313;52.894;6.492;2022-11-20T05:39:43;-0.20;99.90
60309;DHT22;50313;52.894;6.492;2022-11-20T05:42:09;-0.20;99.90
60309;DHT22;50313;52.894;6.492;2022-11-20T05:44:53;-0.10;99.90
60309;DHT22;50313;52.894;6.492;2022-11-20T05:47:19;-0.10;99.90
60309;DHT22;50313;52.894;6.492;2022-11-20T05:49:45;-0.10;99.90
60309;DHT22;50313;52.894;6.492;2022-11-20T05:52:10;-0.10;99.90
60309;DHT22;50313;52.894;6.492;2022-11-20T05:54:43;-0.10;99.90
60309;DHT22;50313;52.894;6.492;2022-11-20T05:57:08;-0.10;99.90
60309;DHT22;50313;52.894;6.492;2022-11-20T05:59:34;0.00;99.90
60309;DHT22;50313;52.894;6.492;2022-11-20T06:02:00;0.00;99.90
60309;DHT22;50313;52.894;6.492;2022-11-20T06:04:25;0.00;99.90
60309;DHT22;50313;52.894;6.492;2022-11-20T06:06:51;0.00;99.90
60309;DHT22;50313;52.894;6.492;2022-11-20T06:09:17;-0.10;99.90
60309;DHT22;50313;52.894;6.492;2022-11-20T06:11:43;-0.10;99.90
60309;DHT22;50313;52.894;6.492;2022-11-20T06:14:09;-0.10;99.90
60309;DHT22;50313;52.894;6.492;2022-11-20T06:16:34;-0.10;99.90
60309;DHT22;50313;52.894;6.492;2022-11-20T06:19:00;-0.10;99.90
60309;DHT22;50313;52.894;6.492;2022-11-20T06:21:26;0.00;99.90
60309;DHT22;50313;52.894;6.492;2022-11-20T06:23:53;-0.10;99.90
60309;DHT22;50313;52.894;6.492;2022-11-20T06:26:24;0.00;99.90
60309;DHT22;50313;52.894;6.492;2022-11-20T06:28:51;-0.10;99.90
60309;DHT22;50313;52.894;6.492;2022-11-20T06:31:19;-0.10;99.90
60309;DHT22;50313;52.894;6.492;2022-11-20T06:33:46;-0.10;99.90
60309;DHT22;50313;52.894;6.492;2022-11-20T06:36:13;-0.10;99.90
60309;DHT22;50313;52.894;6.492;2022-11-20T06:38:40;-0.10;99.90
60309;DHT22;50313;52.894;6.492;2022-11-20T06:41:11;0.00;99.90
60309;DHT22;50313;52.894;6.492;2022-11-20T06:43:37;0.00;99.90
60309;DHT22;50313;52.894;6.492;2022-11-20T06:46:03;0.00;99.90
60309;DHT22;50313;52.894;6.492;2022-11-20T06:48:29;0.00;99.90
60309;DHT22;50313;52.894;6.492;2022-11-20T06:50:56;-0.10;99.90
60309;DHT22;50313;52.894;6.492;2022-11-20T06:53:23;0.00;99.90
60309;DHT22;50313;52.894;6.492;2022-11-20T06:55:50;0.00;99.90
60309;DHT22;50313;52.894;6.492;2022-11-20T06:58:16;0.00;99.90
60309;DHT22;50313;52.894;6.492;2022-11-20T07:00:42;0.00;99.90
60309;DHT22;50313;52.894;6.492;2022-11-20T07:03:10;0.00;99.90
60309;DHT22;50313;52.894;6.492;2022-11-20T07:05:37;0.10;99.90
60309;DHT22;50313;52.894;6.492;2022-11-20T07:08:04;0.00;99.90
60309;DHT22;50313;52.894;6.492;2022-11-20T07:10:31;0.00;99.90
60309;DHT22;50313;52.894;6.492;2022-11-20T07:12:56;0.10;99.90
60309;DHT22;50313;52.894;6.492;2022-11-20T07:15:23;0.00;99.90
60309;DHT22;50313;52.894;6.492;2022-11-20T07:17:50;0.10;99.90
60309;DHT22;50313;52.894;6.492;2022-11-20T07:20:15;0.10;99.90
60309;DHT22;50313;52.894;6.492;2022-11-20T07:22:42;0.10;99.90
60309;DHT22;50313;52.894;6.492;2022-11-20T07:25:08;0.10;99.90
60309;DHT22;50313;52.894;6.492;2022-11-20T07:27:34;0.10;99.90
60309;DHT22;50313;52.894;6.492;2022-11-20T07:30:00;0.10;99.90
60309;DHT22;50313;52.894;6.492;2022-11-20T07:32:26;0.10;99.90
60309;DHT22;50313;52.894;6.492;2022-11-20T07:34:52;0.10;99.90
60309;DHT22;50313;52.894;6.492;2022-11-20T07:37:18;0.10;99.90
60309;DHT22;50313;52.894;6.492;2022-11-20T07:39:44;0.10;99.90
60309;DHT22;50313;52.894;6.492;2022-11-20T07:42:10;0.20;99.90
60309;DHT22;50313;52.894;6.492;2022-11-20T07:44:38;0.20;99.90
60309;DHT22;50313;52.894;6.492;2022-11-20T07:47:04;0.20;99.90
60309;DHT22;50313;52.894;6.492;2022-11-20T07:49:30;0.20;99.90
60309;DHT22;50313;52.894;6.492;2022-11-20T07:51:56;0.20;99.90
60309;DHT22;50313;52.894;6.492;2022-11-20T07:54:40;0.30;99.90
60309;DHT22;50313;52.894;6.492;2022-11-20T07:57:06;0.30;99.90
60309;DHT22;50313;52.894;6.492;2022-11-20T07:59:31;0.30;99.90
60309;DHT22;50313;52.894;6.492;2022-11-20T08:01:57;0.30;99.90
60309;DHT22;50313;52.894;6.492;2022-11-20T08:04:23;0.30;99.90
60309;DHT22;50313;52.894;6.492;2022-11-20T08:06:49;0.30;99.90
60309;DHT22;50313;52.894;6.492;2022-11-20T08:09:14;0.30;99.90
60309;DHT22;50313;52.894;6.492;2022-11-20T08:11:40;0.30;99.90
60309;DHT22;50313;52.894;6.492;2022-11-20T08:14:25;0.30;99.90
60309;DHT22;50313;52.894;6.492;2022-11-20T08:16:52;0.30;99.90
60309;DHT22;50313;52.894;6.492;2022-11-20T08:19:19;0.20;99.90
60309;DHT22;50313;52.894;6.492;2022-11-20T08:21:45;0.30;99.90
60309;DHT22;50313;52.894;6.492;2022-11-20T08:24:11;0.30;99.90
60309;DHT22;50313;52.894;6.492;2022-11-20T08:26:38;0.30;99.90
60309;DHT22;50313;52.894;6.492;2022-11-20T08:29:05;0.30;99.90
60309;DHT22;50313;52.894;6.492;2022-11-20T08:31:31;0.40;99.90
60309;DHT22;50313;52.894;6.492;2022-11-20T08:33:57;0.40;99.90
60309;DHT22;50313;52.894;6.492;2022-11-20T08:36:24;0.40;99.90
60309;DHT22;50313;52.894;6.492;2022-11-20T08:38:54;0.50;99.90
60309;DHT22;50313;52.894;6.492;2022-11-20T08:41:21;0.50;99.90
60309;DHT22;50313;52.894;6.492;2022-11-20T08:43:55;0.60;99.90
60309;DHT22;50313;52.894;6.492;2022-11-20T08:46:23;0.60;99.90
60309;DHT22;50313;52.894;6.492;2022-11-20T08:48:49;0.60;99.90
60309;DHT22;50313;52.894;6.492;2022-11-20T08:51:15;0.60;99.90
60309;DHT22;50313;52.894;6.492;2022-11-20T08:53:41;0.70;99.90
60309;DHT22;50313;52.894;6.492;2022-11-20T08:56:07;0.70;99.90
60309;DHT22;50313;52.894;6.492;2022-11-20T08:58:35;0.70;99.90
60309;DHT22;50313;52.894;6.492;2022-11-20T09:01:01;0.70;99.90
60309;DHT22;50313;52.894;6.492;2022-11-20T09:03:27;0.80;99.90
60309;DHT22;50313;52.894;6.492;2022-11-20T09:06:03;0.90;99.90
60309;DHT22;50313;52.894;6.492;2022-11-20T09:08:29;0.80;99.90
60309;DHT22;50313;52.894;6.492;2022-11-20T09:10:56;1.00;99.90
60309;DHT22;50313;52.894;6.492;2022-11-20T09:13:23;1.00;99.90
60309;DHT22;50313;52.894;6.492;2022-11-20T09:15:54;1.00;99.90
60309;DHT22;50313;52.894;6.492;2022-11-20T09:18:20;1.20;99.90
60309;DHT22;50313;52.894;6.492;2022-11-20T09:20:47;1.20;99.90
60309;DHT22;50313;52.894;6.492;2022-11-20T09:23:13;1.30;99.90
60309;DHT22;50313;52.894;6.492;2022-11-20T09:25:38;1.30;99.90
60309;DHT22;50313;52.894;6.492;2022-11-20T09:28:04;1.30;99.90
60309;DHT22;50313;52.894;6.492;2022-11-20T09:30:30;1.50;99.90
60309;DHT22;50313;52.894;6.492;2022-11-20T09:32:56;1.70;99.90
60309;DHT22;50313;52.894;6.492;2022-11-20T09:35:22;1.70;99.90
60309;DHT22;50313;52.894;6.492;2022-11-20T09:37:48;1.80;99.90
60309;DHT22;50313;52.894;6.492;2022-11-20T09:40:21;1.80;99.90
60309;DHT22;50313;52.894;6.492;2022-11-20T09:42:58;1.70;99.90
60309;DHT22;50313;52.894;6.492;2022-11-20T09:45:59;1.80;99.90
60309;DHT22;50313;52.894;6.492;2022-11-20T09:54:26;1.90;99.90
60309;DHT22;50313;52.894;6.492;2022-11-20T09:56:58;1.90;99.90
60309;DHT22;50313;52.894;6.492;2022-11-20T10:05:17;2.10;99.90
60309;DHT22;50313;52.894;6.492;2022-11-20T10:10:33;2.30;99.90
60309;DHT22;50313;52.894;6.492;2022-11-20T10:13:19;2.40;99.90
60309;DHT22;50313;52.894;6.492;2022-11-20T10:29:46;2.80;99.90
60309;DHT22;50313;52.894;6.492;2022-11-20T10:32:20;2.80;99.90
60309;DHT22;50313;52.894;6.492;2022-11-20T10:34:59;2.80;99.90
60309;DHT22;50313;52.894;6.492;2022-11-20T10:37:28;3.00;99.90
60309;DHT22;50313;52.894;6.492;2022-11-20T10:40:40;3.10;99.90
60309;DHT22;50313;52.894;6.492;2022-11-20T10:43:16;3.20;99.90
60309;DHT22;50313;52.894;6.492;2022-11-20T10:45:56;3.30;99.90
60309;DHT22;50313;52.894;6.492;2022-11-20T10:48:27;3.40;99.90
60309;DHT22;50313;52.894;6.492;2022-11-20T10:56:33;3.50;99.90
60309;DHT22;50313;52.894;6.492;2022-11-20T11:01:45;3.60;99.90
60309;DHT22;50313;52.894;6.492;2022-11-20T11:04:38;3.60;99.90
60309;DHT22;50313;52.894;6.492;2022-11-20T11:07:13;3.70;99.90
60309;DHT22;50313;52.894;6.492;2022-11-20T11:09:44;3.70;99.90
60309;DHT22;50313;52.894;6.492;2022-11-20T11:12:12;3.60;99.90
60309;DHT22;50313;52.894;6.492;2022-11-20T11:14:43;3.80;99.90
60309;DHT22;50313;52.894;6.492;2022-11-20T11:17:22;3.80;99.90
60309;DHT22;50313;52.894;6.492;2022-11-20T11:22:49;3.90;99.90
60309;DHT22;50313;52.894;6.492;2022-11-20T11:25:30;3.90;99.90
60309;DHT22;50313;52.894;6.492;2022-11-20T11:27:59;3.90;99.90
60309;DHT22;50313;52.894;6.492;2022-11-20T11:30:27;3.90;99.90
60309;DHT22;50313;52.894;6.492;2022-11-20T11:33:17;3.90;99.90
60309;DHT22;50313;52.894;6.492;2022-11-20T11:35:46;3.90;99.90
60309;DHT22;50313;52.894;6.492;2022-11-20T11:38:16;3.90;99.90
60309;DHT22;50313;52.894;6.492;2022-11-20T11:40:44;4.00;99.90
60309;DHT22;50313;52.894;6.492;2022-11-20T11:43:22;4.00;99.90
60309;DHT22;50313;52.894;6.492;2022-11-20T11:46:27;4.10;99.90
60309;DHT22;50313;52.894;6.492;2022-11-20T11:51:46;4.40;99.90
60309;DHT22;50313;52.894;6.492;2022-11-20T11:57:05;4.40;99.90
60309;DHT22;50313;52.894;6.492;2022-11-20T11:59:44;4.40;99.90
60309;DHT22;50313;52.894;6.492;2022-11-20T12:04:59;4.30;99.90
60309;DHT22;50313;52.894;6.492;2022-11-20T12:12:52;4.20;99.90
60309;DHT22;50313;52.894;6.492;2022-11-20T12:15:46;4.20;99.90
60309;DHT22;50313;52.894;6.492;2022-11-20T12:18:21;4.20;99.90
60309;DHT22;50313;52.894;6.492;2022-11-20T12:29:38;4.10;99.90
60309;DHT22;50313;52.894;6.492;2022-11-20T12:35:25;3.90;99.90
60309;DHT22;50313;52.894;6.492;2022-11-20T12:38:01;3.90;99.90
60309;DHT22;50313;52.894;6.492;2022-11-20T12:43:24;3.90;99.90
60309;DHT22;50313;52.894;6.492;2022-11-20T12:48:39;3.90;99.90
60309;DHT22;50313;52.894;6.492;2022-11-20T12:51:14;3.90;99.90
60309;DHT22;50313;52.894;6.492;2022-11-20T13:02:23;3.40;99.90
60309;DHT22;50313;52.894;6.492;2022-11-20T13:07:42;3.30;99.90
60309;DHT22;50313;52.894;6.492;2022-11-20T13:13:30;3.20;99.90
60309;DHT22;50313;52.894;6.492;2022-11-20T13:16:10;3.20;99.90
60309;DHT22;50313;52.894;6.492;2022-11-20T13:18:39;3.30;99.90
60309;DHT22;50313;52.894;6.492;2022-11-20T13:21:36;3.30;99.90
60309;DHT22;50313;52.894;6.492;2022-11-20T13:24:27;3.40;99.90
60309;DHT22;50313;52.894;6.492;2022-11-20T13:27:17;3.40;99.90
60309;DHT22;50313;52.894;6.492;2022-11-20T13:29:46;3.30;99.90
60309;DHT22;50313;52.894;6.492;2022-11-20T13:32:20;3.30;99.90
60309;DHT22;50313;52.894;6.492;2022-11-20T13:35:00;3.20;99.90
60309;DHT22;50313;52.894;6.492;2022-11-20T13:45:42;2.90;99.90
60309;DHT22;50313;52.894;6.492;2022-11-20T13:48:21;2.90;99.90
60309;DHT22;50313;52.894;6.492;2022-11-20T14:01:45;3.00;99.90
60309;DHT22;50313;52.894;6.492;2022-11-20T14:04:15;3.00;99.90
60309;DHT22;50313;52.894;6.492;2022-11-20T14:06:45;3.00;99.90
60309;DHT22;50313;52.894;6.492;2022-11-20T14:09:26;3.00;99.90
60309;DHT22;50313;52.894;6.492;2022-11-20T14:11:52;2.90;99.90
60309;DHT22;50313;52.894;6.492;2022-11-20T14:14:21;2.90;99.90
60309;DHT22;50313;52.894;6.492;2022-11-20T14:16:48;2.90;99.90
60309;DHT22;50313;52.894;6.492;2022-11-20T14:21:53;2.80;99.90
60309;DHT22;50313;52.894;6.492;2022-11-20T14:24:24;2.90;99.90
60309;DHT22;50313;52.894;6.492;2022-11-20T14:26:51;2.80;99.90
60309;DHT22;50313;52.894;6.492;2022-11-20T14:29:19;2.80;99.90
60309;DHT22;50313;52.894;6.492;2022-11-20T14:31:48;2.80;99.90
60309;DHT22;50313;52.894;6.492;2022-11-20T14:34:20;2.80;99.90
60309;DHT22;50313;52.894;6.492;2022-11-20T14:36:47;2.70;99.90
60309;DHT22;50313;52.894;6.492;2022-11-20T14:39:32;2.80;99.90
60309;DHT22;50313;52.894;6.492;2022-11-20T14:41:58;2.70;99.90
60309;DHT22;50313;52.894;6.492;2022-11-20T14:44:31;2.70;99.90
60309;DHT22;50313;52.894;6.492;2022-11-20T14:47:00;2.70;99.90
60309;DHT22;50313;52.894;6.492;2022-11-20T14:49:29;2.60;99.90
60309;DHT22;50313;52.894;6.492;2022-11-20T14:52:10;2.60;99.90
60309;DHT22;50313;52.894;6.492;2022-11-20T14:54:57;2.60;99.90
60309;DHT22;50313;52.894;6.492;2022-11-20T14:57:33;2.60;99.90
60309;DHT22;50313;52.894;6.492;2022-11-20T15:02:45;2.60;99.90
60309;DHT22;50313;52.894;6.492;2022-11-20T15:05:12;2.60;99.90
60309;DHT22;50313;52.894;6.492;2022-11-20T15:07:44;2.60;99.90
60309;DHT22;50313;52.894;6.492;2022-11-20T15:13:04;2.50;99.90
60309;DHT22;50313;52.894;6.492;2022-11-20T15:18:01;2.50;99.90
60309;DHT22;50313;52.894;6.492;2022-11-20T15:20:31;2.50;99.90
60309;DHT22;50313;52.894;6.492;2022-11-20T15:22:57;2.50;99.90
60309;DHT22;50313;52.894;6.492;2022-11-20T15:25:23;2.50;99.90
60309;DHT22;50313;52.894;6.492;2022-11-20T15:27:54;2.50;99.90
60309;DHT22;50313;52.894;6.492;2022-11-20T15:30:22;2.50;99.90
60309;DHT22;50313;52.894;6.492;2022-11-20T15:32:48;2.40;99.90
60309;DHT22;50313;52.894;6.492;2022-11-20T15:35:14;2.40;99.90
60309;DHT22;50313;52.894;6.492;2022-11-20T15:37:41;2.40;99.90
60309;DHT22;50313;52.894;6.492;2022-11-20T15:40:07;2.30;99.90
60309;DHT22;50313;52.894;6.492;2022-11-20T15:42:34;2.30;99.90
60309;DHT22;50313;52.894;6.492;2022-11-20T15:45:00;2.20;99.90
60309;DHT22;50313;52.894;6.492;2022-11-20T15:47:33;2.20;99.90
60309;DHT22;50313;52.894;6.492;2022-11-20T15:50:00;2.30;99.90
60309;DHT22;50313;52.894;6.492;2022-11-20T15:52:26;2.20;99.90
60309;DHT22;50313;52.894;6.492;2022-11-20T15:54:52;2.20;99.90
60309;DHT22;50313;52.894;6.492;2022-11-20T15:57:18;2.20;99.90
60309;DHT22;50313;52.894;6.492;2022-11-20T15:59:44;2.30;99.90
60309;DHT22;50313;52.894;6.492;2022-11-20T16:02:14;2.10;99.90
60309;DHT22;50313;52.894;6.492;2022-11-20T16:04:41;2.10;99.90
60309;DHT22;50313;52.894;6.492;2022-11-20T16:07:07;2.10;99.90
60309;DHT22;50313;52.894;6.492;2022-11-20T16:09:33;2.10;99.90
60309;DHT22;50313;52.894;6.492;2022-11-20T16:11:59;2.00;99.90
60309;DHT22;50313;52.894;6.492;2022-11-20T16:14:26;2.10;99.90
60309;DHT22;50313;52.894;6.492;2022-11-20T16:17:11;2.10;99.90
60309;DHT22;50313;52.894;6.492;2022-11-20T16:19:36;2.10;99.90
60309;DHT22;50313;52.894;6.492;2022-11-20T16:22:03;2.10;99.90
60309;DHT22;50313;52.894;6.492;2022-11-20T16:24:29;2.10;99.90
60309;DHT22;50313;52.894;6.492;2022-11-20T16:26:55;2.10;99.90
60309;DHT22;50313;52.894;6.492;2022-11-20T16:29:21;2.10;99.90
60309;DHT22;50313;52.894;6.492;2022-11-20T16:31:47;2.10;99.90
60309;DHT22;50313;52.894;6.492;2022-11-20T16:34:15;2.10;99.90
60309;DHT22;50313;52.894;6.492;2022-11-20T16:36:42;2.00;99.90
60309;DHT22;50313;52.894;6.492;2022-11-20T16:39:09;2.10;99.90
60309;DHT22;50313;52.894;6.492;2022-11-20T16:41:35;2.00;99.90
60309;DHT22;50313;52.894;6.492;2022-11-20T16:44:06;2.00;99.90
60309;DHT22;50313;52.894;6.492;2022-11-20T16:46:32;2.00;99.90
60309;DHT22;50313;52.894;6.492;2022-11-20T16:49:00;2.00;99.90
60309;DHT22;50313;52.894;6.492;2022-11-20T16:51:28;2.00;99.90
60309;DHT22;50313;52.894;6.492;2022-11-20T16:53:54;2.00;99.90
60309;DHT22;50313;52.894;6.492;2022-11-20T16:56:25;2.10;99.90
60309;DHT22;50313;52.894;6.492;2022-11-20T16:58:53;2.00;99.90
60309;DHT22;50313;52.894;6.492;2022-11-20T17:01:21;2.00;99.90
60309;DHT22;50313;52.894;6.492;2022-11-20T17:03:54;2.00;99.90
60309;DHT22;50313;52.894;6.492;2022-11-20T17:06:22;2.00;99.90
60309;DHT22;50313;52.894;6.492;2022-11-20T17:08:48;2.00;99.90
60309;DHT22;50313;52.894;6.492;2022-11-20T17:11:17;2.00;99.90
60309;DHT22;50313;52.894;6.492;2022-11-20T17:13:43;2.00;99.90
60309;DHT22;50313;52.894;6.492;2022-11-20T17:16:15;2.00;99.90
60309;DHT22;50313;52.894;6.492;2022-11-20T17:18:41;2.00;99.90
60309;DHT22;50313;52.894;6.492;2022-11-20T17:21:07;2.00;99.90
60309;DHT22;50313;52.894;6.492;2022-11-20T17:23:35;1.90;99.90
60309;DHT22;50313;52.894;6.492;2022-11-20T17:26:03;2.00;99.90
60309;DHT22;50313;52.894;6.492;2022-11-20T17:28:30;1.90;99.90
60309;DHT22;50313;52.894;6.492;2022-11-20T17:31:05;1.90;99.90
60309;DHT22;50313;52.894;6.492;2022-11-20T17:33:34;2.00;99.90
60309;DHT22;50313;52.894;6.492;2022-11-20T17:36:00;1.90;99.90
60309;DHT22;50313;52.894;6.492;2022-11-20T17:38:26;1.90;99.90
60309;DHT22;50313;52.894;6.492;2022-11-20T17:40:52;1.90;99.90
60309;DHT22;50313;52.894;6.492;2022-11-20T17:43:17;1.90;99.90
60309;DHT22;50313;52.894;6.492;2022-11-20T17:45:44;1.90;99.90
60309;DHT22;50313;52.894;6.492;2022-11-20T17:48:10;1.90;99.90
60309;DHT22;50313;52.894;6.492;2022-11-20T17:50:36;1.90;99.90